AMS weather

Amsterdam Airport Schiphol
Amsterdam, Noord-Holland, Netherlands

Public forecast

Using degrees Celsius for public forecast. Weather courtesy of forecast.io.

METAR (pilot weather report)

Retrieved 2017/02/24 14:25 UTC (22 minutes ago):

EHAM 241425Z 30012KT 270V330 9999 FEW025 07/01 Q1015 NOSIG

TAF (pilot weather forecast)

Retrieved 2017/02/24 12:27 UTC (2 hours ago):

TAF TAF EHAM 241115Z 2412/2518 30012KT 9999 FEW025 PROB30 TEMPO 2412/2416 6000 -SHRA FEW020TCU SCT025 BECMG 2416/2419 28005KT BECMG 2419/2422 20007KT BECMG 2506/2509 19012KT TEMPO 2508/2513 7000 -RA BKN030 BECMG 2509/2512 20017KT